KOPL/OPL METAR and TAF weather

Enter ICAO airport designator
Station Type Date Time Source
KOPL METAR 2019/08/20 09:35 UTC NOAA

KOPL 200935Z AUTO 00000KT 2SM BR OVC003 24/24 A3002 RMK AO2 T02410240


Station Type Date Time Source
KOPL Decoded METAR 2019/08/20 09:35 UTC NOAA

Station name not available
Aug 20, 2019 - 05:35 AM EDT / 2019.08.20 0935 UTC
Wind: Calm:0
Visibility: 2 mile(s):0
Sky conditions: overcast
Weather: mist
Temperature: 75.4 F (24.1 C)
Dew Point: 75.2 F (24.0 C)
Relative Humidity: 99%
Pressure (altimeter): 30.02 in. Hg (1016 hPa)
ob: KOPL 200935Z AUTO 00000KT 2SM BR OVC003 24/24 A3002 RMK AO2 T02410240
cycle: 9

Station Type Date Time Source
KOPL TAF UTC NOAA

Error!

Example: see airport list